Time;durP1;ratioP1;P1;durP2;ratioP2;P2;SDS_P1;SDS_P2;PMS_P1;PMS_P2;Temp;Humidity;BMP_temperature;BMP_pressure;BME280_temperature;BME280_humidity;BME280_pressure;Samples;Min_cycle;Max_cycle;Signal;HPM_P1;HPM_P2
2022/01/01 00:02:19;;;;;;;;;;;11.70;99.90;;;;;;5112241;27;20415;-76
2022/01/01 00:04:45;;;;;;;0.70;0.70;;;11.70;99.90;;;;;;5117186;27;19920;-81
2022/01/01 00:07:11;;;;;;;2.72;2.47;;;11.70;99.90;;;;;;5116355;27;20035;-83
2022/01/01 00:09:38;;;;;;;1.80;1.70;;;11.70;99.90;;;;;;5114304;27;20058;-81
2022/01/01 00:12:04;;;;;;;;;;;11.70;99.90;;;;;;5109785;27;20076;-82
2022/01/01 00:14:30;;;;;;;1.67;1.58;;;11.70;99.90;;;;;;5127670;27;19920;-82
2022/01/01 00:16:55;;;;;;;0.70;0.70;;;11.70;99.90;;;;;;5108082;28;20036;-81
2022/01/01 00:19:21;;;;;;;1.33;1.23;;;11.70;99.90;;;;;;5119992;27;20032;-82
2022/01/01 00:21:47;;;;;;;0.70;0.70;;;11.70;99.90;;;;;;5120780;27;20043;-81
2022/01/01 00:24:12;;;;;;;1.50;1.27;;;11.70;99.90;;;;;;5118722;28;20077;-82
2022/01/01 00:26:38;;;;;;;1.47;0.90;;;11.70;99.90;;;;;;5111909;28;20039;-82
2022/01/01 00:29:04;;;;;;;1.23;1.13;;;11.70;99.90;;;;;;5113697;28;20463;-82
2022/01/01 00:31:30;;;;;;;0.77;0.73;;;11.70;99.90;;;;;;5103185;28;20043;-82
2022/01/01 00:33:55;;;;;;;1.75;1.60;;;11.60;99.90;;;;;;5109672;28;20074;-83
2022/01/01 00:36:21;;;;;;;0.93;0.70;;;11.60;99.90;;;;;;5100528;28;20047;-82
2022/01/01 00:38:47;;;;;;;0.97;0.90;;;11.60;99.90;;;;;;5121596;28;20044;-82
2022/01/01 00:41:12;;;;;;;2.53;1.60;;;11.60;99.90;;;;;;5113689;28;20054;-81
2022/01/01 00:43:38;;;;;;;0.60;0.60;;;11.60;99.90;;;;;;5113800;28;20071;-82
2022/01/01 00:46:04;;;;;;;13.18;3.38;;;11.60;99.90;;;;;;5111666;28;20042;-82
2022/01/01 00:48:30;;;;;;;1.73;1.63;;;11.60;99.90;;;;;;5111771;28;20485;-82
2022/01/01 00:50:56;;;;;;;11.93;4.43;;;11.60;99.90;;;;;;5113208;28;20048;-82
2022/01/01 00:53:22;;;;;;;1.90;1.80;;;11.60;99.90;;;;;;5112388;28;20131;-82
2022/01/01 00:55:47;;;;;;;3.67;2.65;;;11.60;99.90;;;;;;5113585;28;20059;-82
2022/01/01 00:58:13;;;;;;;2.53;2.07;;;11.60;99.90;;;;;;5098835;28;20103;-82
2022/01/01 01:00:39;;;;;;;1.17;1.07;;;11.60;99.90;;;;;;5106971;28;20046;-82
2022/01/01 01:03:12;;;;;;;3.97;1.70;;;11.60;99.90;;;;;;5101992;28;20437;-82
2022/01/01 01:05:39;;;;;;;1.60;1.50;;;11.60;99.90;;;;;;5097541;28;20480;-82
2022/01/01 01:08:06;;;;;;;2.50;2.30;;;11.60;99.90;;;;;;5112842;28;20479;-82
2022/01/01 01:10:32;;;;;;;0.75;0.75;;;11.50;99.90;;;;;;5110575;28;20047;-82
2022/01/01 01:12:57;;;;;;;1.73;1.63;;;11.50;99.90;;;;;;5113246;28;20455;-82
2022/01/01 01:15:24;;;;;;;1.80;1.63;;;11.50;99.90;;;;;;5105746;28;20040;-82
2022/01/01 01:17:52;;;;;;;3.13;1.48;;;11.50;99.90;;;;;;5115911;28;20114;-82
2022/01/01 01:20:19;;;;;;;2.08;1.15;;;11.50;99.90;;;;;;5114426;28;20055;-82
2022/01/01 01:22:46;;;;;;;1.45;1.35;;;11.50;99.90;;;;;;5113195;28;20490;-82
2022/01/01 01:25:12;;;;;;;2.22;1.98;;;11.40;99.90;;;;;;5108665;28;20078;-82
2022/01/01 01:27:38;;;;;;;1.63;1.27;;;11.50;99.90;;;;;;5103446;28;20407;-82
2022/01/01 01:30:15;;;;;;;1.00;1.00;;;11.40;99.90;;;;;;5103849;27;20050;-82
2022/01/01 01:32:41;;;;;;;4.78;2.53;;;11.40;99.90;;;;;;5119930;27;20039;-82
2022/01/01 01:35:08;;;;;;;1.87;1.77;;;11.40;99.90;;;;;;5107546;27;20138;-82
2022/01/01 01:37:34;;;;;;;;;;;11.40;99.90;;;;;;5108472;28;20281;-82
2022/01/01 01:39:59;;;;;;;2.72;2.50;;;11.40;99.90;;;;;;5111494;28;19927;-82
2022/01/01 01:42:28;;;;;;;0.97;0.97;;;11.40;99.90;;;;;;5117028;28;20479;-82
2022/01/01 01:44:54;;;;;;;3.80;3.50;;;11.30;99.90;;;;;;5116456;28;20035;-82
2022/01/01 01:47:29;;;;;;;2.08;1.95;;;11.40;99.90;;;;;;5115792;28;20062;-81
2022/01/01 01:49:56;;;;;;;1.48;1.33;;;11.40;99.90;;;;;;5108309;28;20050;-81
2022/01/01 01:52:22;;;;;;;;;;;11.30;99.90;;;;;;5115918;28;20122;-81
2022/01/01 01:54:47;;;;;;;4.05;2.97;;;11.30;99.90;;;;;;5099589;28;20333;-81
2022/01/01 01:57:13;;;;;;;3.47;1.77;;;11.30;99.90;;;;;;5105340;28;20047;-82
2022/01/01 01:59:41;;;;;;;21.77;3.07;;;11.30;99.90;;;;;;5116234;28;20043;-82
2022/01/01 02:02:07;;;;;;;1.30;1.20;;;11.30;99.90;;;;;;5103053;28;20052;-82
2022/01/01 02:04:33;;;;;;;9.02;2.97;;;11.30;99.90;;;;;;5108502;28;20051;-82
2022/01/01 02:06:59;;;;;;;1.87;1.77;;;11.20;99.90;;;;;;5112827;28;20391;-82
2022/01/01 02:09:25;;;;;;;2.38;2.25;;;11.60;99.90;;;;;;5111015;28;20112;-82
2022/01/01 02:11:53;;;;;;;2.33;2.15;;;11.20;99.90;;;;;;5097565;28;20044;-82
2022/01/01 02:14:34;;;;;;;1.38;1.27;;;11.20;99.90;;;;;;5104225;28;20050;-82
2022/01/01 02:19:30;;;;;;;3.00;2.63;;;11.20;99.90;;;;;;5112043;28;20559;-82
2022/01/01 02:22:00;;;;;;;2.58;2.30;;;11.10;99.90;;;;;;5110925;28;20517;-82
2022/01/01 02:24:26;;;;;;;8.88;4.10;;;11.10;99.90;;;;;;5113050;28;20050;-81
2022/01/01 02:26:52;;;;;;;0.87;0.83;;;11.10;99.90;;;;;;5113015;28;20391;-81
2022/01/01 02:29:19;;;;;;;3.43;2.03;;;11.10;99.90;;;;;;5105128;27;20047;-82
2022/01/01 02:31:44;;;;;;;7.95;2.88;;;11.10;99.90;;;;;;5111772;28;20070;-82
2022/01/01 02:34:11;;;;;;;1.93;1.80;;;11.10;99.90;;;;;;5103120;28;20039;-82
2022/01/01 02:36:41;;;;;;;1.83;1.73;;;11.10;99.90;;;;;;5108215;28;20048;-82
2022/01/01 02:39:19;;;;;;;1.40;1.30;;;11.00;99.90;;;;;;5114019;28;20039;-82
2022/01/01 02:41:48;;;;;;;1.48;1.38;;;11.00;99.90;;;;;;5108507;27;20090;-82
2022/01/01 02:44:14;;;;;;;3.10;2.80;;;11.00;99.90;;;;;;5119036;27;20124;-82
2022/01/01 02:46:40;;;;;;;5.07;2.33;;;11.10;99.90;;;;;;5114257;28;20035;-82
2022/01/01 02:49:06;;;;;;;3.07;1.23;;;11.10;99.90;;;;;;5115891;27;20035;-81
2022/01/01 02:51:32;;;;;;;3.90;2.70;;;11.10;99.90;;;;;;5115922;27;20035;-81
2022/01/01 02:53:58;;;;;;;1.13;1.08;;;11.10;99.90;;;;;;5115210;28;20078;-82
2022/01/01 02:56:24;;;;;;;5.97;2.33;;;11.10;99.90;;;;;;5109540;27;20071;-82
2022/01/01 02:58:51;;;;;;;5.75;3.53;;;11.10;99.90;;;;;;5109299;27;20395;-82
2022/01/01 03:01:17;;;;;;;3.28;1.83;;;11.10;99.90;;;;;;5122146;27;20048;-82
2022/01/01 03:03:44;;;;;;;2.17;1.55;;;11.10;99.90;;;;;;5116296;27;20045;-81
2022/01/01 03:06:10;;;;;;;2.67;1.70;;;11.10;99.90;;;;;;5127674;27;20130;-82
2022/01/01 03:08:36;;;;;;;3.13;1.90;;;11.10;99.90;;;;;;5121884;27;20372;-82
2022/01/01 03:11:02;;;;;;;1.60;1.50;;;11.10;99.90;;;;;;5130976;27;20043;-82
2022/01/01 03:13:31;;;;;;;3.57;2.47;;;11.10;99.90;;;;;;5117133;27;20562;-82
2022/01/01 03:15:57;;;;;;;2.88;2.65;;;11.10;99.90;;;;;;5117464;27;20325;-82
2022/01/01 03:18:23;;;;;;;0.87;0.87;;;11.10;99.90;;;;;;5112491;28;20427;-81
2022/01/01 03:20:48;;;;;;;3.50;1.23;;;11.10;99.90;;;;;;5119386;27;20054;-82
2022/01/01 03:23:14;;;;;;;3.40;3.10;;;11.10;99.90;;;;;;5113551;27;20039;-82
2022/01/01 03:25:39;;;;;;;2.20;2.00;;;11.10;99.90;;;;;;5101246;28;20047;-82
2022/01/01 03:28:05;;;;;;;0.90;0.90;;;11.10;99.90;;;;;;5109305;28;20043;-82
2022/01/01 03:30:31;;;;;;;1.23;1.10;;;11.10;99.90;;;;;;5099575;28;20044;-82
2022/01/01 03:32:58;;;;;;;1.67;1.57;;;11.10;99.90;;;;;;5105129;28;20081;-82
2022/01/01 03:35:23;;;;;;;1.77;1.67;;;11.10;99.90;;;;;;5106803;28;20433;-82
2022/01/01 03:37:49;;;;;;;1.60;1.50;;;11.10;99.90;;;;;;5106724;28;20422;-82
2022/01/01 03:40:14;;;;;;;2.00;1.70;;;11.10;99.90;;;;;;5108205;28;20145;-82
2022/01/01 03:42:40;;;;;;;4.15;3.03;;;11.10;99.90;;;;;;5102615;28;20040;-82
2022/01/01 03:45:07;;;;;;;1.73;0.95;;;11.10;99.90;;;;;;5112180;28;20165;-81
2022/01/01 03:47:33;;;;;;;2.45;2.25;;;11.10;99.90;;;;;;5104905;28;20104;-82
2022/01/01 03:49:59;;;;;;;1.57;1.47;;;11.10;99.90;;;;;;5112242;28;20122;-81
2022/01/01 03:52:24;;;;;;;2.23;1.57;;;11.10;99.90;;;;;;5110969;28;20055;-82
2022/01/01 03:54:50;;;;;;;2.00;1.50;;;11.10;99.90;;;;;;5113258;28;20536;-82
2022/01/01 03:57:16;;;;;;;1.20;1.10;;;11.10;99.90;;;;;;5107832;28;20552;-81
2022/01/01 03:59:42;;;;;;;3.72;2.40;;;11.10;99.90;;;;;;5109267;28;20040;-82
2022/01/01 04:02:07;;;;;;;3.83;3.00;;;11.10;99.90;;;;;;5113386;28;20047;-82
2022/01/01 04:04:33;;;;;;;2.03;1.25;;;11.10;99.90;;;;;;5109726;28;20043;-82
2022/01/01 04:07:00;;;;;;;7.22;3.22;;;11.10;99.90;;;;;;5111220;28;20108;-81
2022/01/01 04:09:25;;;;;;;;;;;11.10;99.90;;;;;;5111086;28;20122;-82
2022/01/01 04:11:51;;;;;;;2.25;1.25;;;11.10;99.90;;;;;;5113775;28;19962;-81
2022/01/01 04:14:17;;;;;;;6.68;3.00;;;11.10;99.90;;;;;;5109912;28;20096;-82
2022/01/01 04:16:43;;;;;;;1.27;1.17;;;11.10;99.90;;;;;;5096646;28;20096;-81
2022/01/01 04:19:09;;;;;;;4.90;1.97;;;11.20;99.90;;;;;;5106692;28;20044;-82
2022/01/01 04:21:35;;;;;;;1.60;1.50;;;11.10;99.90;;;;;;5101659;28;20040;-81
2022/01/01 04:24:02;;;;;;;1.30;1.20;;;11.20;99.90;;;;;;5101019;28;20088;-81
2022/01/01 04:26:28;;;;;;;1.45;1.25;;;11.10;99.90;;;;;;5098151;28;20071;-82
2022/01/01 04:28:53;;;;;;;1.07;1.00;;;11.20;99.90;;;;;;5101365;28;20461;-82
2022/01/01 04:31:19;;;;;;;0.70;0.70;;;11.20;99.90;;;;;;5100333;28;20043;-81
2022/01/01 04:33:45;;;;;;;1.33;1.23;;;11.20;99.90;;;;;;5100856;28;20050;-81
2022/01/01 04:36:11;;;;;;;1.30;1.23;;;11.10;99.90;;;;;;5098314;28;20065;-81
2022/01/01 04:38:40;;;;;;;1.73;1.63;;;11.20;99.90;;;;;;5102998;28;20487;-82
2022/01/01 04:41:09;;;;;;;2.05;1.48;;;11.20;99.90;;;;;;5100803;28;20125;-81
2022/01/01 04:43:36;;;;;;;1.52;1.42;;;11.40;99.90;;;;;;5100190;28;20445;-81
2022/01/01 04:46:02;;;;;;;0.82;0.82;;;11.10;99.90;;;;;;5101550;28;20137;-82
2022/01/01 04:48:27;;;;;;;1.63;1.53;;;11.10;99.90;;;;;;5101356;28;20035;-81
2022/01/01 04:50:53;;;;;;;1.27;1.17;;;11.20;99.90;;;;;;5099923;28;20516;-82
2022/01/01 04:53:19;;;;;;;2.40;1.90;;;11.20;99.90;;;;;;5101113;28;20097;-82
2022/01/01 04:55:49;;;;;;;2.05;1.90;;;11.20;99.90;;;;;;5097245;28;20044;-81
2022/01/01 04:58:16;;;;;;;1.85;1.70;;;11.10;99.90;;;;;;5133038;27;20130;-81
2022/01/01 05:00:42;;;;;;;4.67;2.90;;;11.10;99.90;;;;;;5099483;28;20040;-82
2022/01/01 05:03:07;;;;;;;0.60;0.60;;;11.10;99.90;;;;;;5111362;28;20312;-82
2022/01/01 05:05:33;;;;;;;0.97;0.97;;;11.10;99.90;;;;;;5114766;28;20120;-82
2022/01/01 05:07:58;;;;;;;1.92;1.48;;;11.10;99.90;;;;;;5106786;28;20047;-82
2022/01/01 05:10:24;;;;;;;2.25;1.65;;;11.10;99.90;;;;;;5111799;27;20061;-81
2022/01/01 05:12:53;;;;;;;3.05;1.88;;;11.10;99.90;;;;;;5122098;27;20042;-82
2022/01/01 05:15:19;;;;;;;2.22;2.03;;;11.10;99.90;;;;;;5110700;27;20047;-82
2022/01/01 05:17:44;;;;;;;1.87;1.10;;;11.10;99.90;;;;;;5122675;27;20040;-82
2022/01/01 05:20:10;;;;;;;2.93;2.63;;;11.10;99.90;;;;;;5115459;27;20044;-81
2022/01/01 05:22:36;;;;;;;3.20;3.00;;;11.10;99.90;;;;;;5121221;27;20462;-82
2022/01/01 05:25:02;;;;;;;5.10;3.73;;;11.00;99.90;;;;;;5116039;27;20089;-82
2022/01/01 05:27:30;;;;;;;2.47;1.80;;;11.10;99.90;;;;;;5112245;27;20079;-82
2022/01/01 05:29:55;;;;;;;1.60;1.30;;;11.30;99.90;;;;;;5115069;27;20391;-81
2022/01/01 05:32:21;;;;;;;1.53;1.43;;;11.10;99.90;;;;;;5119717;27;20042;-82
2022/01/01 05:34:46;;;;;;;1.83;1.70;;;11.10;99.90;;;;;;5120991;27;20373;-82
2022/01/01 05:37:12;;;;;;;1.73;1.55;;;11.10;99.90;;;;;;5116740;27;20514;-82
2022/01/01 05:39:38;;;;;;;5.40;3.23;;;11.10;99.90;;;;;;5121985;27;20069;-82
2022/01/01 05:42:03;;;;;;;3.53;2.15;;;11.10;99.90;;;;;;5119727;27;20046;-82
2022/01/01 05:44:29;;;;;;;3.63;1.70;;;11.10;99.90;;;;;;5110146;28;20047;-82
2022/01/01 05:46:55;;;;;;;9.20;4.07;;;11.10;99.90;;;;;;5101485;28;20097;-82
2022/01/01 05:49:21;;;;;;;1.30;1.02;;;11.10;99.90;;;;;;5105403;28;20044;-82
2022/01/01 05:51:46;;;;;;;1.92;1.75;;;11.10;99.90;;;;;;5096794;28;20055;-82
2022/01/01 05:54:12;;;;;;;1.30;1.20;;;11.10;99.90;;;;;;5114628;28;20380;-82
2022/01/01 05:56:38;;;;;;;2.37;1.60;;;11.10;99.90;;;;;;5108682;28;20081;-82
2022/01/01 05:59:03;;;;;;;3.92;3.60;;;11.20;99.90;;;;;;5102243;28;20438;-82
2022/01/01 06:01:29;;;;;;;2.30;1.85;;;11.20;99.90;;;;;;5110770;28;20044;-82
2022/01/01 06:03:55;;;;;;;1.97;1.77;;;11.20;99.90;;;;;;5104904;28;20089;-82
2022/01/01 06:06:20;;;;;;;1.02;1.02;;;11.20;99.90;;;;;;5107230;28;20066;-82
2022/01/01 06:08:46;;;;;;;1.65;1.02;;;11.20;99.90;;;;;;5110018;28;20058;-82
2022/01/01 06:11:11;;;;;;;4.28;2.88;;;11.20;99.90;;;;;;5113618;28;20043;-81
2022/01/01 06:13:37;;;;;;;6.13;4.20;;;11.20;99.90;;;;;;5104983;28;20043;-82
2022/01/01 06:16:03;;;;;;;4.25;2.47;;;11.20;99.90;;;;;;5108097;28;20043;-82
2022/01/01 06:18:28;;;;;;;1.70;1.60;;;11.20;99.90;;;;;;5109400;28;20040;-82
2022/01/01 06:20:54;;;;;;;3.50;3.20;;;11.20;99.90;;;;;;5109982;28;20039;-82
2022/01/01 06:23:20;;;;;;;0.83;0.83;;;11.20;99.90;;;;;;5099872;28;20036;-81
2022/01/01 06:25:45;;;;;;;1.65;0.75;;;11.20;99.90;;;;;;5112238;28;20063;-81
2022/01/01 06:28:12;;;;;;;1.73;0.97;;;11.20;99.90;;;;;;5100693;28;20032;-82
2022/01/01 06:30:38;;;;;;;1.02;0.77;;;11.20;99.90;;;;;;5134339;27;20048;-82
2022/01/01 06:33:17;;;;;;;0.93;0.93;;;11.20;99.90;;;;;;5107141;28;20093;-82
2022/01/01 06:35:45;;;;;;;0.75;0.75;;;11.30;99.90;;;;;;5102163;28;20043;-82
2022/01/01 06:38:11;;;;;;;1.48;1.05;;;11.30;99.90;;;;;;5104225;28;20044;-82
2022/01/01 06:40:42;;;;;;;0.85;0.85;;;11.30;99.90;;;;;;5102432;28;20039;-82
2022/01/01 06:43:08;;;;;;;1.95;1.42;;;11.20;99.90;;;;;;5109760;28;20043;-82
2022/01/01 06:45:34;;;;;;;;;;;11.30;99.90;;;;;;5104980;28;20044;-80
2022/01/01 06:48:00;;;;;;;1.30;0.65;;;11.30;99.90;;;;;;5114124;28;19923;-81
2022/01/01 06:50:26;;;;;;;2.23;2.00;;;11.30;99.90;;;;;;5111658;28;20043;-80
2022/01/01 06:52:51;;;;;;;0.68;0.68;;;11.30;99.90;;;;;;5113862;28;20409;-82
2022/01/01 06:55:17;;;;;;;6.83;1.07;;;11.30;99.90;;;;;;5111952;28;20460;-78
2022/01/01 06:57:44;;;;;;;0.60;0.60;;;11.30;99.90;;;;;;5110156;28;20047;-80
2022/01/01 07:00:10;;;;;;;0.55;0.55;;;11.30;99.90;;;;;;5093939;28;20411;-78
2022/01/01 07:02:44;;;;;;;0.40;0.40;;;11.30;99.90;;;;;;5095013;28;20043;-79
2022/01/01 07:05:11;;;;;;;0.65;0.65;;;11.30;99.90;;;;;;5102842;28;20043;-79
2022/01/01 07:07:36;;;;;;;1.17;1.05;;;11.30;99.90;;;;;;5107441;28;20044;-79
2022/01/01 07:10:10;;;;;;;0.95;0.95;;;11.30;99.90;;;;;;5113855;28;20041;-82
2022/01/01 07:12:37;;;;;;;0.40;0.40;;;11.00;99.90;;;;;;5104744;28;20440;-81
2022/01/01 07:15:07;;;;;;;0.50;0.50;;;11.30;99.90;;;;;;5099786;28;20132;-81
2022/01/01 07:17:33;;;;;;;0.30;0.30;;;11.20;99.90;;;;;;5110773;28;20135;-80
2022/01/01 07:19:59;;;;;;;1.73;1.07;;;11.20;99.90;;;;;;5099675;28;20118;-80
2022/01/01 07:22:24;;;;;;;0.98;0.90;;;11.20;99.90;;;;;;5138021;27;20464;-80
2022/01/01 07:24:50;;;;;;;0.97;0.77;;;11.20;99.90;;;;;;5147531;27;20427;-81
2022/01/01 07:27:16;;;;;;;0.82;0.82;;;11.20;99.90;;;;;;5082434;28;20048;-80
2022/01/01 07:29:42;;;;;;;0.75;0.75;;;11.20;99.90;;;;;;5103241;28;20047;-79
2022/01/01 07:32:08;;;;;;;0.87;0.83;;;11.20;99.90;;;;;;5103023;28;20036;-80
2022/01/01 07:34:34;;;;;;;0.90;0.90;;;11.20;99.90;;;;;;5101938;28;20071;-81
2022/01/01 07:37:00;;;;;;;1.03;0.93;;;11.20;99.90;;;;;;5097200;28;20036;-83
2022/01/01 07:39:25;;;;;;;0.67;0.67;;;11.20;99.90;;;;;;5106380;28;20057;-79
2022/01/01 07:41:51;;;;;;;1.13;1.03;;;11.30;99.90;;;;;;5096555;28;20046;-80
2022/01/01 07:44:16;;;;;;;1.20;0.67;;;11.20;99.90;;;;;;5113080;27;20043;-79
2022/01/01 07:46:42;;;;;;;0.70;0.70;;;11.20;99.90;;;;;;5106629;28;20403;-78
2022/01/01 07:49:08;;;;;;;0.60;0.60;;;11.20;99.90;;;;;;5095034;28;20036;-77
2022/01/01 07:51:33;;;;;;;0.80;0.80;;;11.70;99.90;;;;;;5110008;27;20051;-77
2022/01/01 07:53:59;;;;;;;2.35;1.38;;;11.20;99.90;;;;;;5097340;28;20082;-76
2022/01/01 07:56:25;;;;;;;1.23;1.20;;;11.20;99.90;;;;;;5098086;28;20047;-78
2022/01/01 07:58:50;;;;;;;0.73;0.73;;;11.20;99.90;;;;;;5095239;28;20126;-78
2022/01/01 08:01:16;;;;;;;0.63;0.63;;;11.20;99.90;;;;;;5095418;28;20045;-83
2022/01/01 08:03:42;;;;;;;4.68;1.40;;;11.30;99.90;;;;;;5095993;28;20105;-82
2022/01/01 08:06:08;;;;;;;0.80;0.80;;;11.30;99.90;;;;;;5095022;28;20039;-81
2022/01/01 08:08:33;;;;;;;0.87;0.87;;;11.30;99.90;;;;;;5114965;27;20147;-79
2022/01/01 08:10:59;;;;;;;0.60;0.60;;;11.40;99.90;;;;;;5117833;27;20072;-78
2022/01/01 08:13:25;;;;;;;0.85;0.85;;;11.30;99.90;;;;;;5103987;28;20047;-80
2022/01/01 08:15:54;;;;;;;3.63;3.33;;;11.30;99.90;;;;;;5112595;28;20027;-79
2022/01/01 08:18:21;;;;;;;1.17;1.13;;;11.30;99.90;;;;;;5111322;28;20475;-80
2022/01/01 08:20:47;;;;;;;1.58;1.48;;;11.30;99.90;;;;;;5113298;28;20437;-79
2022/01/01 08:23:14;;;;;;;0.90;0.77;;;11.40;99.90;;;;;;5112122;28;20078;-79
2022/01/01 08:25:40;;;;;;;1.17;1.08;;;11.40;99.90;;;;;;5107601;28;20444;-80
2022/01/01 08:28:07;;;;;;;0.90;0.88;;;11.40;99.90;;;;;;5105048;28;20122;-82
2022/01/01 08:30:33;;;;;;;;;;;11.40;99.90;;;;;;5098264;28;20088;-81
2022/01/01 08:33:02;;;;;;;3.30;1.00;;;11.40;99.90;;;;;;5108134;28;19924;-80
2022/01/01 08:35:29;;;;;;;0.93;0.93;;;11.50;99.90;;;;;;5111026;28;20032;-80
2022/01/01 08:37:55;;;;;;;;;;;11.50;99.90;;;;;;5105913;28;20071;-81
2022/01/01 08:40:20;;;;;;;1.95;1.85;;;11.70;99.90;;;;;;5106900;28;20363;-80
2022/01/01 08:42:46;;;;;;;1.57;1.47;;;11.50;99.90;;;;;;5114886;28;20123;-80
2022/01/01 08:45:11;;;;;;;0.67;0.67;;;11.60;99.90;;;;;;5105076;28;20088;-78
2022/01/01 08:47:37;;;;;;;1.00;0.73;;;11.60;99.90;;;;;;5117974;28;20037;-79
2022/01/01 08:50:03;;;;;;;2.40;1.33;;;11.60;99.90;;;;;;5113062;28;20040;-81
2022/01/01 08:52:29;;;;;;;9.47;3.20;;;11.70;99.90;;;;;;5113995;28;20051;-82
2022/01/01 08:54:55;;;;;;;1.43;1.33;;;11.70;99.90;;;;;;5149649;27;20402;-79
2022/01/01 08:57:21;;;;;;;;;;;11.70;99.90;;;;;;5112540;28;20387;-86
2022/01/01 08:59:47;;;;;;;1.13;1.05;;;11.70;99.90;;;;;;5116358;28;20322;-81
2022/01/01 09:02:13;;;;;;;2.13;2.03;;;11.80;99.90;;;;;;5111796;28;20040;-81
2022/01/01 09:04:38;;;;;;;1.30;1.20;;;11.80;99.90;;;;;;5098417;28;20127;-80
2022/01/01 09:07:04;;;;;;;0.70;0.70;;;11.80;99.90;;;;;;5117817;28;20040;-82
2022/01/01 09:09:29;;;;;;;1.60;1.13;;;11.80;99.90;;;;;;5116005;28;20093;-81
2022/01/01 09:11:55;;;;;;;1.38;1.27;;;11.80;99.90;;;;;;5104117;28;20048;-80
2022/01/01 09:14:21;;;;;;;4.38;1.58;;;11.80;99.90;;;;;;5101168;28;20048;-86
2022/01/01 09:16:46;;;;;;;2.20;1.23;;;11.90;99.90;;;;;;5152467;27;20039;-87
2022/01/01 09:19:13;;;;;;;1.43;1.33;;;11.90;99.90;;;;;;5142447;27;20039;-83
2022/01/01 09:21:38;;;;;;;0.60;0.60;;;11.90;99.90;;;;;;5117006;28;20385;-82
2022/01/01 09:24:05;;;;;;;4.05;1.40;;;11.90;99.90;;;;;;5112257;28;20043;-80
2022/01/01 09:26:30;;;;;;;0.83;0.80;;;12.00;99.90;;;;;;5108745;28;20032;-87
2022/01/01 09:28:56;;;;;;;10.82;1.95;;;12.00;99.90;;;;;;5126482;27;20088;-83
2022/01/01 09:31:22;;;;;;;1.13;1.13;;;12.00;99.90;;;;;;5110259;28;20499;-80
2022/01/01 09:33:48;;;;;;;0.60;0.60;;;12.00;99.90;;;;;;5113418;27;20035;-79
2022/01/01 09:36:17;;;;;;;0.70;0.70;;;12.00;99.90;;;;;;5113581;28;20039;-82
2022/01/01 09:38:44;;;;;;;1.17;1.08;;;12.10;99.90;;;;;;5112325;28;20466;-84
2022/01/01 09:41:12;;;;;;;0.60;0.60;;;12.10;99.90;;;;;;5110703;28;20475;-80
2022/01/01 09:43:38;;;;;;;1.75;1.20;;;12.10;99.90;;;;;;5116058;28;20039;-83
2022/01/01 09:46:05;;;;;;;0.70;0.70;;;12.20;99.90;;;;;;5113458;28;20084;-77
2022/01/01 09:48:31;;;;;;;0.65;0.65;;;12.30;99.90;;;;;;5114348;28;20508;-79
2022/01/01 09:51:00;;;;;;;2.87;2.63;;;12.20;99.90;;;;;;5113644;28;20039;-82
2022/01/01 09:53:26;;;;;;;0.68;0.68;;;12.30;99.90;;;;;;5114404;28;20056;-81
2022/01/01 09:55:54;;;;;;;8.48;2.58;;;12.30;99.90;;;;;;5112414;28;20731;-82
2022/01/01 09:58:24;;;;;;;1.70;1.27;;;12.30;99.90;;;;;;5114377;28;20047;-80
2022/01/01 10:00:50;;;;;;;6.47;1.02;;;12.30;99.90;;;;;;5113276;28;20048;-84
2022/01/01 10:03:16;;;;;;;0.47;0.47;;;12.40;99.90;;;;;;5112150;28;20546;-81
2022/01/01 10:06:05;;;;;;;2.00;1.38;;;12.40;99.90;;;;;;5115931;28;20532;-83
2022/01/01 10:08:32;;;;;;;1.15;0.88;;;12.50;99.90;;;;;;5100370;28;20048;-84
2022/01/01 10:10:58;;;;;;;1.52;1.42;;;12.50;99.90;;;;;;5099596;28;20064;-83
2022/01/01 10:13:32;;;;;;;0.75;0.75;;;12.50;99.90;;;;;;5100585;28;20129;-83
2022/01/01 10:16:00;;;;;;;0.75;0.75;;;12.50;99.90;;;;;;5093856;28;20151;-83
2022/01/01 10:18:33;;;;;;;0.50;0.50;;;12.60;99.90;;;;;;5095876;28;20392;-83
2022/01/01 10:21:05;;;;;;;1.17;1.15;;;12.60;99.90;;;;;;5096998;28;20119;-83
2022/01/01 10:23:33;;;;;;;0.40;0.40;;;12.60;99.90;;;;;;5079448;28;20052;-84
2022/01/01 10:28:53;;;;;;;1.30;0.73;;;12.70;99.90;;;;;;5094968;28;20165;-83
2022/01/01 10:31:19;;;;;;;5.40;2.57;;;12.70;99.90;;;;;;5103471;28;20115;-83
2022/01/01 10:33:46;;;;;;;3.40;1.60;;;12.70;99.90;;;;;;5099879;28;20047;-83
2022/01/01 10:36:13;;;;;;;3.53;1.58;;;12.70;99.90;;;;;;5115485;28;20071;-83
2022/01/01 10:38:39;;;;;;;0.75;0.73;;;12.70;99.90;;;;;;5115105;28;20054;-83
2022/01/01 10:41:08;;;;;;;0.97;0.97;;;12.70;99.90;;;;;;5116240;28;20044;-84
2022/01/01 10:43:42;;;;;;;1.55;1.20;;;12.60;99.90;;;;;;5115203;28;20045;-83
2022/01/01 10:46:19;;;;;;;4.32;1.40;;;12.70;99.90;;;;;;5115054;28;20050;-83
2022/01/01 10:51:14;;;;;;;0.95;0.90;;;12.70;99.90;;;;;;5097682;28;20113;-84
2022/01/01 10:53:39;;;;;;;0.37;0.37;;;12.60;99.90;;;;;;5114771;28;20051;-83
2022/01/01 10:56:20;;;;;;;0.57;0.55;;;12.60;99.90;;;;;;5115881;28;20493;-83
2022/01/01 10:59:01;;;;;;;0.60;0.60;;;12.60;99.90;;;;;;5106904;28;20035;-84
2022/01/01 11:01:26;;;;;;;2.60;1.17;;;12.60;99.90;;;;;;5102452;28;20048;-83
2022/01/01 11:03:55;;;;;;;0.70;0.70;;;12.60;99.90;;;;;;5115645;28;20123;-83
2022/01/01 11:06:21;;;;;;;1.02;0.90;;;13.00;99.90;;;;;;5115383;28;20483;-83
2022/01/01 11:08:47;;;;;;;2.35;2.15;;;12.60;99.90;;;;;;5115613;28;20040;-83
2022/01/01 11:11:15;;;;;;;2.13;0.83;;;12.60;99.90;;;;;;5113822;28;20136;-83
2022/01/01 11:13:41;;;;;;;0.63;0.63;;;12.70;99.90;;;;;;5115552;28;20055;-83
2022/01/01 11:16:08;;;;;;;0.40;0.40;;;12.70;99.90;;;;;;5114465;28;20399;-83
2022/01/01 11:18:35;;;;;;;0.60;0.60;;;12.70;99.90;;;;;;5115479;28;20043;-84
2022/01/01 11:21:03;;;;;;;0.50;0.50;;;12.70;99.90;;;;;;5115241;28;20095;-83
2022/01/01 11:23:30;;;;;;;0.82;0.82;;;12.70;99.90;;;;;;5109995;28;20047;-83
2022/01/01 11:25:55;;;;;;;0.75;0.70;;;12.70;99.90;;;;;;5093850;28;20484;-84
2022/01/01 11:28:22;;;;;;;0.50;0.50;;;12.70;99.90;;;;;;5094945;28;20050;-84
2022/01/01 11:30:53;;;;;;;1.13;1.00;;;12.60;99.90;;;;;;5094696;28;20066;-83
2022/01/01 11:33:27;;;;;;;0.85;0.85;;;12.60;99.90;;;;;;5095398;28;20051;-83
2022/01/01 11:35:56;;;;;;;0.68;0.68;;;12.60;99.90;;;;;;5095440;28;20079;-83
2022/01/01 11:38:22;;;;;;;0.90;0.77;;;12.60;99.90;;;;;;5095771;28;20120;-83
2022/01/01 11:40:58;;;;;;;0.57;0.57;;;12.60;99.90;;;;;;5094814;28;20131;-83
2022/01/01 11:43:39;;;;;;;0.47;0.47;;;12.60;99.90;;;;;;5094528;28;20048;-83
2022/01/01 11:46:10;;;;;;;0.55;0.55;;;12.60;99.90;;;;;;5127545;27;20047;-83
2022/01/01 11:48:41;;;;;;;3.90;0.70;;;12.60;99.90;;;;;;5094853;28;20055;-83
2022/01/01 11:51:26;;;;;;;0.82;0.82;;;12.60;99.90;;;;;;5094907;28;20127;-84
2022/01/01 11:54:13;;;;;;;0.50;0.50;;;12.60;99.90;;;;;;5127646;27;20059;-84
2022/01/01 11:56:51;;;;;;;0.95;0.95;;;12.60;99.90;;;;;;5096006;28;20047;-84
2022/01/01 11:59:41;;;;;;;0.40;0.40;;;12.60;99.90;;;;;;5094518;28;20052;-84
2022/01/01 12:02:19;;;;;;;0.50;0.50;;;12.60;99.90;;;;;;5089582;28;20395;-84
2022/01/01 12:04:45;;;;;;;;;;;12.60;99.90;;;;;;5095299;28;20047;-83
2022/01/01 12:07:20;;;;;;;0.60;0.60;;;12.60;99.90;;;;;;5082287;28;20356;-84
2022/01/01 12:09:58;;;;;;;0.40;0.40;;;12.60;99.90;;;;;;5120380;28;20494;-84
2022/01/01 12:12:38;;;;;;;;;;;12.60;99.90;;;;;;5105377;28;20072;-83
2022/01/01 12:15:28;;;;;;;0.40;0.40;;;12.60;99.90;;;;;;5094338;28;19920;-84
2022/01/01 12:18:03;;;;;;;0.40;0.40;;;12.60;99.90;;;;;;5084383;28;20101;-83
2022/01/01 12:20:46;;;;;;;0.40;0.40;;;12.60;99.90;;;;;;5093355;28;20126;-84
2022/01/01 12:23:17;;;;;;;1.00;0.93;;;12.60;99.90;;;;;;5110401;28;20047;-83
2022/01/01 12:25:46;;;;;;;0.30;0.30;;;12.60;99.90;;;;;;5114172;28;20534;-84
2022/01/01 12:28:22;;;;;;;0.40;0.40;;;12.60;99.90;;;;;;5107335;28;20051;-84
2022/01/01 12:30:50;;;;;;;8.30;1.27;;;12.70;99.90;;;;;;5093137;28;20122;-83
2022/01/01 12:33:38;;;;;;;0.70;0.60;;;12.70;99.90;;;;;;5093921;28;20093;-84
2022/01/01 12:36:06;;;;;;;0.63;0.63;;;12.70;99.90;;;;;;5138519;27;20043;-83
2022/01/01 12:38:33;;;;;;;0.90;0.80;;;12.70;99.90;;;;;;5124172;28;20050;-80
2022/01/01 12:41:07;;;;;;;0.40;0.40;;;12.70;99.90;;;;;;5115514;28;20129;-82
2022/01/01 12:43:55;;;;;;;0.50;0.50;;;12.70;99.90;;;;;;5112647;28;20047;-83
2022/01/01 12:46:25;;;;;;;0.50;0.50;;;12.70;99.90;;;;;;5114697;28;20035;-78
2022/01/01 12:48:52;;;;;;;0.73;0.68;;;12.70;99.90;;;;;;5116383;28;20047;-83
2022/01/01 12:51:23;;;;;;;0.77;0.77;;;12.70;99.90;;;;;;5097624;28;20047;-83
2022/01/01 12:53:57;;;;;;;1.15;1.05;;;12.70;99.90;;;;;;5114760;28;20060;-83
2022/01/01 12:56:23;;;;;;;0.50;0.50;;;12.70;99.90;;;;;;5109714;28;20046;-82
2022/01/01 12:58:55;;;;;;;0.40;0.40;;;13.00;99.90;;;;;;5099295;28;20427;-81
2022/01/01 13:01:23;;;;;;;0.50;0.50;;;12.70;99.90;;;;;;5094981;28;20048;-83